RYR213 LCPH-LGAV
Flight info
| Callsign | RYR213 |
|---|---|
| Flight time | 1h 21m |
| Altitude | 38000 |
| Route | GENOS DCT PEDER DCT LUTIG DCT RDS UL995 USINI DCT AKINA DCT RIPLI UL995 VARIX |
| Aircraft | B738/M-SDE2E3FGHIRWXY/LB1 |
Departure
| Time | 2026-04-21 17:29 |
|---|---|
| Airport | Paphos International Airport (LCPH) |
Arrival
| Time | 2026-04-21 18:51 |
|---|---|
| Airport | Athens Eleftherios Venizelos International Airport (LGAV) |
| Time | Latitude | Longitude | Altitude | Speed | Heading |
|---|---|---|---|---|---|
| 2026-04-21 17:02 | 34.71331 | 32.48713 | 31 ft | 0 kts | 156° |
| 2026-04-21 17:09 | 34.71339 | 32.48709 | 31 ft | 2 kts | 156° |
| 2026-04-21 17:09 | 34.71352 | 32.48702 | 32 ft | 2 kts | 156° |
| 2026-04-21 17:10 | 34.71363 | 32.48696 | 32 ft | 0 kts | 156° |
| 2026-04-21 17:10 | 34.71374 | 32.48689 | 32 ft | 2 kts | 141° |
| 2026-04-21 17:10 | 34.71384 | 32.48676 | 32 ft | 2 kts | 123° |
| 2026-04-21 17:10 | 34.71391 | 32.48660 | 33 ft | 2 kts | 104° |
| 2026-04-21 17:11 | 34.71392 | 32.48642 | 33 ft | 2 kts | 86° |
| 2026-04-21 17:11 | 34.71390 | 32.48625 | 32 ft | 1 kts | 69° |
| 2026-04-21 17:11 | 34.71387 | 32.48618 | 32 ft | 1 kts | 65° |
| 2026-04-21 17:11 | 34.71387 | 32.48617 | 32 ft | 0 kts | 65° |
| 2026-04-21 17:12 | 34.71387 | 32.48618 | 32 ft | 0 kts | 65° |
| 2026-04-21 17:15 | 34.71390 | 32.48627 | 32 ft | 3 kts | 65° |
| 2026-04-21 17:15 | 34.71399 | 32.48649 | 33 ft | 1 kts | 64° |
| 2026-04-21 17:15 | 34.71407 | 32.48670 | 33 ft | 1 kts | 64° |
| 2026-04-21 17:15 | 34.71414 | 32.48688 | 34 ft | 5 kts | 64° |
| 2026-04-21 17:16 | 34.71444 | 32.48764 | 36 ft | 11 kts | 64° |
| 2026-04-21 17:16 | 34.71479 | 32.48858 | 37 ft | 14 kts | 68° |
| 2026-04-21 17:16 | 34.71506 | 32.48929 | 37 ft | 4 kts | 62° |
| 2026-04-21 17:16 | 34.71529 | 32.48966 | 38 ft | 6 kts | 30° |
| 2026-04-21 17:17 | 34.71584 | 32.48992 | 39 ft | 11 kts | 19° |
| 2026-04-21 17:17 | 34.71622 | 32.49080 | 41 ft | 15 kts | 100° |
| 2026-04-21 17:17 | 34.71585 | 32.49226 | 42 ft | 20 kts | 110° |
| 2026-04-21 17:17 | 34.71534 | 32.49372 | 43 ft | 16 kts | 109° |
| 2026-04-21 17:18 | 34.71496 | 32.49522 | 43 ft | 19 kts | 108° |
| 2026-04-21 17:18 | 34.71454 | 32.49668 | 43 ft | 14 kts | 110° |
| 2026-04-21 17:18 | 34.71394 | 32.49755 | 43 ft | 8 kts | 137° |
| 2026-04-21 17:18 | 34.71378 | 32.49773 | 43 ft | 4 kts | 137° |
| 2026-04-21 17:19 | 34.71353 | 32.49806 | 42 ft | 5 kts | 110° |
| 2026-04-21 17:19 | 34.71353 | 32.49813 | 42 ft | 0 kts | 60° |
| 2026-04-21 17:20 | 34.71354 | 32.49814 | 42 ft | 0 kts | 60° |
| 2026-04-21 17:28 | 34.71357 | 32.49822 | 42 ft | 4 kts | 60° |
| 2026-04-21 17:28 | 34.71385 | 32.49846 | 44 ft | 5 kts | 0° |
| 2026-04-21 17:28 | 34.71410 | 32.49813 | 44 ft | 1 kts | 292° |
| 2026-04-21 17:28 | 34.71431 | 32.49749 | 44 ft | 25 kts | 290° |
| 2026-04-21 17:29 | 34.71605 | 32.49180 | 42 ft | 114 kts | 290° |
| 2026-04-21 17:29 | 34.71958 | 32.48013 | 280 ft | 165 kts | 290° |
| 2026-04-21 17:29 | 34.72311 | 32.46780 | 1293 ft | 163 kts | 289° |
| 2026-04-21 17:29 | 34.72383 | 32.45390 | 2027 ft | 175 kts | 257° |
| 2026-04-21 17:30 | 34.71968 | 32.43946 | 2643 ft | 189 kts | 251° |
| 2026-04-21 17:30 | 34.71562 | 32.42377 | 3241 ft | 204 kts | 255° |
| 2026-04-21 17:30 | 34.71187 | 32.40656 | 3838 ft | 219 kts | 256° |
| 2026-04-21 17:30 | 34.70799 | 32.38808 | 4394 ft | 238 kts | 256° |
| 2026-04-21 17:31 | 34.70374 | 32.36814 | 5146 ft | 250 kts | 256° |
| 2026-04-21 17:31 | 34.69928 | 32.34746 | 5912 ft | 262 kts | 256° |
| 2026-04-21 17:31 | 34.69456 | 32.32565 | 6688 ft | 274 kts | 256° |
| 2026-04-21 17:31 | 34.68976 | 32.30348 | 7663 ft | 276 kts | 257° |
| 2026-04-21 17:32 | 34.68486 | 32.28088 | 8615 ft | 280 kts | 257° |
| 2026-04-21 17:32 | 34.67995 | 32.25821 | 9513 ft | 284 kts | 257° |
| 2026-04-21 17:32 | 34.67491 | 32.23494 | 10405 ft | 288 kts | 257° |
| 2026-04-21 17:32 | 34.66975 | 32.21107 | 10981 ft | 303 kts | 257° |
| 2026-04-21 17:33 | 34.66428 | 32.18565 | 11519 ft | 319 kts | 257° |
| 2026-04-21 17:33 | 34.66035 | 32.15869 | 12047 ft | 333 kts | 267° |
| 2026-04-21 17:33 | 34.66059 | 32.13068 | 12754 ft | 340 kts | 275° |
| 2026-04-21 17:33 | 34.66292 | 32.10210 | 13644 ft | 342 kts | 278° |
| 2026-04-21 17:34 | 34.66572 | 32.07357 | 14484 ft | 345 kts | 278° |
| 2026-04-21 17:34 | 34.66845 | 32.04430 | 15269 ft | 349 kts | 277° |
| 2026-04-21 17:34 | 34.67090 | 32.01507 | 16026 ft | 354 kts | 277° |
| 2026-04-21 17:34 | 34.67315 | 31.98544 | 16793 ft | 357 kts | 276° |
| 2026-04-21 17:35 | 34.67531 | 31.95547 | 17527 ft | 360 kts | 277° |
| 2026-04-21 17:35 | 34.67832 | 31.92533 | 18239 ft | 363 kts | 281° |
| 2026-04-21 17:35 | 34.68448 | 31.89561 | 18947 ft | 365 kts | 290° |
| 2026-04-21 17:35 | 34.69477 | 31.86745 | 19692 ft | 367 kts | 297° |
| 2026-04-21 17:36 | 34.70713 | 31.84018 | 20374 ft | 370 kts | 300° |
| 2026-04-21 17:36 | 34.72030 | 31.81337 | 21034 ft | 373 kts | 301° |
| 2026-04-21 17:36 | 34.73370 | 31.78671 | 21677 ft | 376 kts | 302° |
| 2026-04-21 17:36 | 34.74744 | 31.75935 | 22330 ft | 379 kts | 302° |
| 2026-04-21 17:37 | 34.76104 | 31.73209 | 22968 ft | 381 kts | 301° |
| 2026-04-21 17:37 | 34.77467 | 31.70455 | 23569 ft | 384 kts | 301° |
| 2026-04-21 17:37 | 34.78846 | 31.67646 | 24159 ft | 387 kts | 301° |
| 2026-04-21 17:37 | 34.80215 | 31.64845 | 24709 ft | 390 kts | 301° |
| 2026-04-21 17:38 | 34.81606 | 31.61989 | 25274 ft | 393 kts | 301° |
| 2026-04-21 17:38 | 34.82985 | 31.59151 | 25847 ft | 394 kts | 301° |
| 2026-04-21 17:38 | 34.84376 | 31.56281 | 26384 ft | 396 kts | 300° |
| 2026-04-21 17:38 | 34.85790 | 31.53363 | 26880 ft | 400 kts | 300° |
| 2026-04-21 17:39 | 34.87183 | 31.50483 | 27427 ft | 401 kts | 300° |
| 2026-04-21 17:39 | 34.88600 | 31.47551 | 27890 ft | 404 kts | 300° |
| 2026-04-21 17:39 | 34.90032 | 31.44586 | 28405 ft | 406 kts | 300° |
| 2026-04-21 17:39 | 34.91468 | 31.41607 | 28837 ft | 409 kts | 300° |
| 2026-04-21 17:40 | 34.92907 | 31.38620 | 29303 ft | 412 kts | 300° |
| 2026-04-21 17:40 | 34.94352 | 31.35619 | 29733 ft | 414 kts | 300° |
| 2026-04-21 17:40 | 34.95815 | 31.32578 | 30180 ft | 416 kts | 300° |
| 2026-04-21 17:40 | 34.97284 | 31.29521 | 30590 ft | 419 kts | 300° |
| 2026-04-21 17:41 | 34.98742 | 31.26486 | 31195 ft | 416 kts | 300° |
| 2026-04-21 17:41 | 35.00178 | 31.23495 | 31839 ft | 410 kts | 299° |
| 2026-04-21 17:41 | 35.01627 | 31.20475 | 32307 ft | 410 kts | 299° |
| 2026-04-21 17:41 | 35.03080 | 31.17443 | 32805 ft | 408 kts | 299° |
| 2026-04-21 17:42 | 35.04514 | 31.14446 | 33287 ft | 406 kts | 299° |
| 2026-04-21 17:42 | 35.05973 | 31.11395 | 33807 ft | 403 kts | 299° |
| 2026-04-21 17:42 | 35.07394 | 31.08420 | 34239 ft | 402 kts | 299° |
| 2026-04-21 17:42 | 35.08814 | 31.05445 | 34635 ft | 400 kts | 299° |
| 2026-04-21 17:43 | 35.10239 | 31.02456 | 34956 ft | 401 kts | 298° |
| 2026-04-21 17:43 | 35.11650 | 30.99494 | 35326 ft | 400 kts | 298° |
| 2026-04-21 17:43 | 35.13046 | 30.96561 | 35667 ft | 399 kts | 298° |
| 2026-04-21 17:43 | 35.14442 | 30.93624 | 36043 ft | 398 kts | 298° |
| 2026-04-21 17:44 | 35.15817 | 30.90731 | 36430 ft | 397 kts | 298° |
| 2026-04-21 17:44 | 35.17197 | 30.87825 | 36842 ft | 396 kts | 298° |
| 2026-04-21 17:44 | 35.18563 | 30.84892 | 37234 ft | 396 kts | 297° |
| 2026-04-21 17:44 | 35.19837 | 30.81928 | 37640 ft | 394 kts | 295° |
| 2026-04-21 17:45 | 35.21051 | 30.78952 | 37987 ft | 393 kts | 295° |
| 2026-04-21 17:45 | 35.22254 | 30.75946 | 38014 ft | 396 kts | 294° |
| 2026-04-21 17:45 | 35.24666 | 30.69931 | 38003 ft | 393 kts | 295° |
| 2026-04-21 17:46 | 35.27096 | 30.63931 | 38002 ft | 394 kts | 295° |
| 2026-04-21 17:46 | 35.29531 | 30.57949 | 37998 ft | 394 kts | 295° |
| 2026-04-21 17:47 | 35.31975 | 30.51948 | 38002 ft | 395 kts | 295° |
| 2026-04-21 17:47 | 35.34427 | 30.45926 | 38003 ft | 394 kts | 295° |
| 2026-04-21 17:48 | 35.36854 | 30.39952 | 38003 ft | 395 kts | 295° |
| 2026-04-21 17:48 | 35.39297 | 30.33932 | 38004 ft | 395 kts | 294° |
| 2026-04-21 17:49 | 35.41729 | 30.27924 | 37999 ft | 394 kts | 294° |
| 2026-04-21 17:49 | 35.44168 | 30.21888 | 37998 ft | 395 kts | 294° |
| 2026-04-21 17:50 | 35.46592 | 30.15878 | 38000 ft | 395 kts | 294° |
| 2026-04-21 17:50 | 35.49017 | 30.09855 | 38000 ft | 393 kts | 294° |
| 2026-04-21 17:51 | 35.51418 | 30.03881 | 38001 ft | 393 kts | 294° |
| 2026-04-21 17:51 | 35.53845 | 29.97886 | 38000 ft | 393 kts | 295° |
| 2026-04-21 17:52 | 35.56395 | 29.91974 | 37998 ft | 394 kts | 296° |
| 2026-04-21 17:52 | 35.58988 | 29.86067 | 37999 ft | 394 kts | 296° |
| 2026-04-21 17:53 | 35.61563 | 29.80164 | 37998 ft | 394 kts | 296° |
| 2026-04-21 17:53 | 35.64143 | 29.74213 | 38005 ft | 395 kts | 296° |
| 2026-04-21 17:54 | 35.66712 | 29.68259 | 37996 ft | 394 kts | 296° |
| 2026-04-21 17:54 | 35.69257 | 29.62349 | 37995 ft | 394 kts | 296° |
| 2026-04-21 17:55 | 35.71820 | 29.56384 | 37993 ft | 394 kts | 296° |
| 2026-04-21 17:55 | 35.74384 | 29.50404 | 37995 ft | 395 kts | 296° |
| 2026-04-21 17:56 | 35.76936 | 29.44446 | 37996 ft | 395 kts | 296° |
| 2026-04-21 17:56 | 35.79507 | 29.38431 | 37992 ft | 395 kts | 296° |
| 2026-04-21 17:57 | 35.82060 | 29.32445 | 37994 ft | 395 kts | 296° |
| 2026-04-21 17:57 | 35.84602 | 29.26476 | 37991 ft | 394 kts | 296° |
| 2026-04-21 17:58 | 35.87132 | 29.20520 | 37997 ft | 394 kts | 296° |
| 2026-04-21 17:58 | 35.89672 | 29.14533 | 37994 ft | 394 kts | 296° |
| 2026-04-21 17:59 | 35.92211 | 29.08534 | 37987 ft | 394 kts | 296° |
| 2026-04-21 17:59 | 35.94736 | 29.02559 | 37993 ft | 394 kts | 296° |
| 2026-04-21 18:00 | 35.97271 | 28.96553 | 37992 ft | 394 kts | 296° |
| 2026-04-21 18:00 | 35.99786 | 28.90586 | 37988 ft | 394 kts | 296° |
| 2026-04-21 18:01 | 36.02315 | 28.84568 | 37993 ft | 395 kts | 296° |
| 2026-04-21 18:01 | 36.04829 | 28.78575 | 37990 ft | 395 kts | 296° |
| 2026-04-21 18:02 | 36.07353 | 28.72550 | 37992 ft | 394 kts | 296° |
| 2026-04-21 18:02 | 36.09862 | 28.66549 | 37989 ft | 394 kts | 295° |
| 2026-04-21 18:03 | 36.12378 | 28.60521 | 37994 ft | 395 kts | 295° |
| 2026-04-21 18:03 | 36.14883 | 28.54507 | 37994 ft | 393 kts | 295° |
| 2026-04-21 18:04 | 36.17384 | 28.48494 | 37989 ft | 394 kts | 295° |
| 2026-04-21 18:04 | 36.19875 | 28.42490 | 37988 ft | 394 kts | 295° |
| 2026-04-21 18:05 | 36.22374 | 28.36460 | 37991 ft | 394 kts | 295° |
| 2026-04-21 18:05 | 36.24863 | 28.30439 | 37989 ft | 394 kts | 295° |
| 2026-04-21 18:06 | 36.27351 | 28.24411 | 37989 ft | 394 kts | 295° |
| 2026-04-21 18:06 | 36.29831 | 28.18390 | 37984 ft | 394 kts | 295° |
| 2026-04-21 18:07 | 36.32332 | 28.12308 | 37987 ft | 394 kts | 295° |
| 2026-04-21 18:07 | 36.34788 | 28.06255 | 37988 ft | 394 kts | 294° |
| 2026-04-21 18:08 | 36.37039 | 28.00070 | 37981 ft | 393 kts | 292° |
| 2026-04-21 18:08 | 36.39209 | 27.93880 | 37983 ft | 393 kts | 292° |
| 2026-04-21 18:09 | 36.41397 | 27.87687 | 37983 ft | 393 kts | 292° |
| 2026-04-21 18:09 | 36.43602 | 27.81480 | 37983 ft | 392 kts | 292° |
| 2026-04-21 18:10 | 36.45811 | 27.75283 | 37984 ft | 393 kts | 292° |
| 2026-04-21 18:10 | 36.48015 | 27.69093 | 37985 ft | 394 kts | 292° |
| 2026-04-21 18:11 | 36.50226 | 27.62870 | 37986 ft | 395 kts | 292° |
| 2026-04-21 18:11 | 36.52433 | 27.56646 | 37985 ft | 395 kts | 292° |
| 2026-04-21 18:12 | 36.54633 | 27.50426 | 37982 ft | 394 kts | 292° |
| 2026-04-21 18:12 | 36.56839 | 27.44178 | 37979 ft | 394 kts | 292° |
| 2026-04-21 18:13 | 36.59027 | 27.37969 | 37976 ft | 394 kts | 292° |
| 2026-04-21 18:13 | 36.61223 | 27.31723 | 37974 ft | 394 kts | 292° |
| 2026-04-21 18:14 | 36.64501 | 27.22378 | 37972 ft | 393 kts | 292° |
| 2026-04-21 18:15 | 36.66691 | 27.16119 | 37974 ft | 394 kts | 292° |
| 2026-04-21 18:15 | 36.68862 | 27.09897 | 37976 ft | 394 kts | 292° |
| 2026-04-21 18:16 | 36.71039 | 27.03637 | 37973 ft | 395 kts | 292° |
| 2026-04-21 18:16 | 36.73212 | 26.97375 | 37973 ft | 395 kts | 292° |
| 2026-04-21 18:17 | 36.75396 | 26.91072 | 37974 ft | 395 kts | 292° |
| 2026-04-21 18:17 | 36.77554 | 26.84829 | 37970 ft | 395 kts | 292° |
| 2026-04-21 18:18 | 36.79725 | 26.78534 | 37968 ft | 394 kts | 292° |
| 2026-04-21 18:18 | 36.81876 | 26.72286 | 37965 ft | 395 kts | 292° |
| 2026-04-21 18:19 | 36.84034 | 26.66002 | 37964 ft | 395 kts | 292° |
| 2026-04-21 18:19 | 36.86192 | 26.59709 | 37961 ft | 394 kts | 292° |
| 2026-04-21 18:20 | 36.88336 | 26.53439 | 37962 ft | 395 kts | 292° |
| 2026-04-21 18:20 | 36.90476 | 26.47172 | 37957 ft | 395 kts | 292° |
| 2026-04-21 18:21 | 36.92617 | 26.40886 | 37957 ft | 394 kts | 292° |
| 2026-04-21 18:21 | 36.94770 | 26.34550 | 37955 ft | 394 kts | 291° |
| 2026-04-21 18:22 | 36.96907 | 26.28249 | 37956 ft | 394 kts | 291° |
| 2026-04-21 18:22 | 36.99021 | 26.22002 | 37955 ft | 394 kts | 291° |
| 2026-04-21 18:23 | 37.01164 | 26.15664 | 37808 ft | 396 kts | 291° |
| 2026-04-21 18:23 | 37.02233 | 26.12496 | 37549 ft | 395 kts | 291° |
| 2026-04-21 18:23 | 37.03297 | 26.09343 | 37263 ft | 393 kts | 291° |
| 2026-04-21 18:23 | 37.04355 | 26.06200 | 36968 ft | 392 kts | 291° |
| 2026-04-21 18:24 | 37.05420 | 26.03035 | 36676 ft | 394 kts | 292° |
| 2026-04-21 18:24 | 37.06482 | 25.99873 | 36402 ft | 396 kts | 292° |
| 2026-04-21 18:24 | 37.07558 | 25.96669 | 36179 ft | 397 kts | 292° |
| 2026-04-21 18:24 | 37.08622 | 25.93494 | 35949 ft | 398 kts | 291° |
| 2026-04-21 18:25 | 37.09689 | 25.90309 | 35729 ft | 398 kts | 291° |
| 2026-04-21 18:25 | 37.10763 | 25.87096 | 35506 ft | 398 kts | 292° |
| 2026-04-21 18:25 | 37.11816 | 25.83945 | 35285 ft | 399 kts | 291° |
| 2026-04-21 18:25 | 37.12891 | 25.80725 | 35039 ft | 397 kts | 291° |
| 2026-04-21 18:26 | 37.13938 | 25.77583 | 34627 ft | 394 kts | 291° |
| 2026-04-21 18:26 | 37.14995 | 25.74412 | 34161 ft | 389 kts | 292° |
| 2026-04-21 18:26 | 37.16016 | 25.71346 | 33704 ft | 384 kts | 292° |
| 2026-04-21 18:26 | 37.17042 | 25.68259 | 33233 ft | 379 kts | 292° |
| 2026-04-21 18:27 | 37.18034 | 25.65267 | 32775 ft | 375 kts | 292° |
| 2026-04-21 18:27 | 37.19029 | 25.62261 | 32309 ft | 370 kts | 292° |
| 2026-04-21 18:27 | 37.20006 | 25.59310 | 31862 ft | 372 kts | 292° |
| 2026-04-21 18:27 | 37.20999 | 25.56307 | 31392 ft | 376 kts | 292° |
| 2026-04-21 18:28 | 37.21997 | 25.53288 | 30919 ft | 373 kts | 292° |
| 2026-04-21 18:28 | 37.22983 | 25.50301 | 30452 ft | 368 kts | 292° |
| 2026-04-21 18:28 | 37.23950 | 25.47369 | 29989 ft | 364 kts | 291° |
| 2026-04-21 18:28 | 37.24906 | 25.44469 | 29534 ft | 359 kts | 291° |
| 2026-04-21 18:29 | 37.25850 | 25.41604 | 29084 ft | 355 kts | 292° |
| 2026-04-21 18:29 | 37.26781 | 25.38775 | 28633 ft | 351 kts | 292° |
| 2026-04-21 18:29 | 37.27710 | 25.35934 | 28185 ft | 352 kts | 291° |
| 2026-04-21 18:29 | 37.28563 | 25.33064 | 27732 ft | 356 kts | 289° |
| 2026-04-21 18:30 | 37.29358 | 25.30112 | 27270 ft | 353 kts | 288° |
| 2026-04-21 18:30 | 37.30104 | 25.27243 | 26829 ft | 349 kts | 287° |
| 2026-04-21 18:30 | 37.30846 | 25.24377 | 26387 ft | 344 kts | 288° |
| 2026-04-21 18:30 | 37.31588 | 25.21538 | 25942 ft | 340 kts | 288° |
| 2026-04-21 18:31 | 37.32333 | 25.18712 | 25505 ft | 336 kts | 288° |
| 2026-04-21 18:31 | 37.33064 | 25.15952 | 25081 ft | 334 kts | 288° |
| 2026-04-21 18:31 | 37.33802 | 25.13178 | 24652 ft | 339 kts | 288° |
| 2026-04-21 18:31 | 37.34546 | 25.10383 | 24218 ft | 339 kts | 288° |
| 2026-04-21 18:32 | 37.35316 | 25.07610 | 23775 ft | 335 kts | 290° |
| 2026-04-21 18:32 | 37.36296 | 25.04981 | 23343 ft | 332 kts | 300° |
| 2026-04-21 18:32 | 37.37702 | 25.02711 | 22911 ft | 331 kts | 312° |
| 2026-04-21 18:32 | 37.39440 | 25.00844 | 22476 ft | 330 kts | 320° |
| 2026-04-21 18:33 | 37.41307 | 24.99171 | 22043 ft | 328 kts | 322° |
| 2026-04-21 18:33 | 37.43180 | 24.97589 | 21618 ft | 325 kts | 323° |
| 2026-04-21 18:33 | 37.45068 | 24.96018 | 21195 ft | 322 kts | 323° |
| 2026-04-21 18:33 | 37.46943 | 24.94452 | 20773 ft | 328 kts | 323° |
| 2026-04-21 18:34 | 37.48850 | 24.92847 | 20338 ft | 328 kts | 323° |
| 2026-04-21 18:34 | 37.50715 | 24.91273 | 19911 ft | 322 kts | 323° |
| 2026-04-21 18:34 | 37.52560 | 24.89709 | 19489 ft | 316 kts | 323° |
| 2026-04-21 18:34 | 37.54356 | 24.88183 | 19079 ft | 317 kts | 323° |
| 2026-04-21 18:35 | 37.55587 | 24.87134 | 18794 ft | 320 kts | 323° |
| 2026-04-21 18:35 | 37.58044 | 24.85037 | 18234 ft | 318 kts | 323° |
| 2026-04-21 18:35 | 37.59857 | 24.83488 | 17813 ft | 315 kts | 323° |
| 2026-04-21 18:35 | 37.61647 | 24.81961 | 17402 ft | 312 kts | 323° |
| 2026-04-21 18:36 | 37.63440 | 24.80429 | 16986 ft | 309 kts | 323° |
| 2026-04-21 18:36 | 37.65214 | 24.78913 | 16579 ft | 306 kts | 323° |
| 2026-04-21 18:36 | 37.66956 | 24.77424 | 16175 ft | 304 kts | 323° |
| 2026-04-21 18:36 | 37.68715 | 24.75918 | 15769 ft | 301 kts | 323° |
| 2026-04-21 18:37 | 37.70423 | 24.74454 | 15373 ft | 303 kts | 323° |
| 2026-04-21 18:37 | 37.72192 | 24.72937 | 14962 ft | 307 kts | 323° |
| 2026-04-21 18:37 | 37.73946 | 24.71433 | 14553 ft | 305 kts | 323° |
| 2026-04-21 18:37 | 37.75687 | 24.69942 | 14148 ft | 302 kts | 323° |
| 2026-04-21 18:38 | 37.77423 | 24.68453 | 13748 ft | 299 kts | 323° |
| 2026-04-21 18:38 | 37.79122 | 24.66995 | 13355 ft | 296 kts | 323° |
| 2026-04-21 18:38 | 37.80816 | 24.65540 | 12961 ft | 294 kts | 323° |
| 2026-04-21 18:38 | 37.82488 | 24.64102 | 12571 ft | 291 kts | 323° |
| 2026-04-21 18:39 | 37.84174 | 24.62652 | 12172 ft | 287 kts | 324° |
| 2026-04-21 18:39 | 37.85827 | 24.61229 | 11795 ft | 293 kts | 324° |
| 2026-04-21 18:39 | 37.87517 | 24.59771 | 11393 ft | 293 kts | 324° |
| 2026-04-21 18:39 | 37.89167 | 24.58350 | 11004 ft | 287 kts | 324° |
| 2026-04-21 18:40 | 37.90808 | 24.56938 | 10620 ft | 284 kts | 324° |
| 2026-04-21 18:40 | 37.92464 | 24.55509 | 10242 ft | 289 kts | 324° |
| 2026-04-21 18:40 | 37.93557 | 24.54566 | 10102 ft | 282 kts | 324° |
| 2026-04-21 18:40 | 37.95651 | 24.52760 | 9819 ft | 267 kts | 324° |
| 2026-04-21 18:41 | 37.97165 | 24.51452 | 9447 ft | 262 kts | 324° |
| 2026-04-21 18:41 | 37.98626 | 24.50120 | 9072 ft | 257 kts | 319° |
| 2026-04-21 18:41 | 37.99779 | 24.48423 | 8760 ft | 254 kts | 297° |
| 2026-04-21 18:41 | 38.00422 | 24.46329 | 8581 ft | 260 kts | 288° |
| 2026-04-21 18:42 | 38.00962 | 24.44137 | 8263 ft | 257 kts | 288° |
| 2026-04-21 18:42 | 38.01501 | 24.42010 | 7946 ft | 251 kts | 289° |
| 2026-04-21 18:42 | 38.02052 | 24.39945 | 7642 ft | 251 kts | 290° |
| 2026-04-21 18:42 | 38.02633 | 24.37827 | 7321 ft | 255 kts | 290° |
| 2026-04-21 18:43 | 38.03210 | 24.35736 | 7004 ft | 249 kts | 290° |
| 2026-04-21 18:43 | 38.03778 | 24.33676 | 6698 ft | 245 kts | 289° |
| 2026-04-21 18:43 | 38.04339 | 24.31641 | 6392 ft | 244 kts | 289° |
| 2026-04-21 18:43 | 38.04901 | 24.29598 | 6087 ft | 249 kts | 289° |
| 2026-04-21 18:44 | 38.05467 | 24.27545 | 5773 ft | 248 kts | 289° |
| 2026-04-21 18:44 | 38.06030 | 24.25491 | 5470 ft | 245 kts | 289° |
| 2026-04-21 18:44 | 38.06586 | 24.23459 | 5278 ft | 239 kts | 289° |
| 2026-04-21 18:44 | 38.07129 | 24.21475 | 5079 ft | 237 kts | 289° |
| 2026-04-21 18:45 | 38.07654 | 24.19560 | 4879 ft | 224 kts | 288° |
| 2026-04-21 18:45 | 38.08155 | 24.17729 | 4692 ft | 213 kts | 288° |
| 2026-04-21 18:45 | 38.08628 | 24.16003 | 4463 ft | 205 kts | 288° |
| 2026-04-21 18:45 | 38.09091 | 24.14313 | 4238 ft | 198 kts | 288° |
| 2026-04-21 18:46 | 38.09535 | 24.12687 | 4043 ft | 191 kts | 288° |
| 2026-04-21 18:46 | 38.09930 | 24.11100 | 3855 ft | 188 kts | 281° |
| 2026-04-21 18:46 | 38.09876 | 24.09468 | 3669 ft | 188 kts | 249° |
| 2026-04-21 18:46 | 38.09059 | 24.08201 | 3497 ft | 191 kts | 217° |
| 2026-04-21 18:47 | 38.07923 | 24.07351 | 3312 ft | 191 kts | 210° |
| 2026-04-21 18:47 | 38.06708 | 24.06650 | 3144 ft | 189 kts | 210° |
| 2026-04-21 18:47 | 38.05624 | 24.05731 | 3092 ft | 185 kts | 223° |
| 2026-04-21 18:47 | 38.04700 | 24.04656 | 3102 ft | 182 kts | 227° |
| 2026-04-21 18:48 | 38.03777 | 24.03487 | 2842 ft | 189 kts | 226° |
| 2026-04-21 18:48 | 38.02842 | 24.02354 | 2703 ft | 180 kts | 224° |
| 2026-04-21 18:48 | 38.01943 | 24.01403 | 2667 ft | 162 kts | 220° |
| 2026-04-21 18:48 | 38.01049 | 24.00530 | 2299 ft | 160 kts | 220° |
| 2026-04-21 18:49 | 38.00187 | 23.99663 | 1956 ft | 157 kts | 220° |
| 2026-04-21 18:49 | 37.99363 | 23.98844 | 1794 ft | 145 kts | 219° |
| 2026-04-21 18:49 | 37.98833 | 23.98315 | 1573 ft | 148 kts | 220° |
| 2026-04-21 18:49 | 37.97775 | 23.97277 | 1211 ft | 141 kts | 218° |
| 2026-04-21 18:50 | 37.96991 | 23.96506 | 979 ft | 144 kts | 218° |
| 2026-04-21 18:50 | 37.96194 | 23.95748 | 723 ft | 142 kts | 218° |
| 2026-04-21 18:50 | 37.95413 | 23.94992 | 508 ft | 141 kts | 217° |
| 2026-04-21 18:50 | 37.94616 | 23.94243 | 292 ft | 143 kts | 217° |
| 2026-04-21 18:51 | 37.94048 | 23.93699 | 268 ft | 37 kts | 218° |
| 2026-04-21 18:51 | 37.93978 | 23.93630 | 267 ft | 0 kts | 218° |
| 2026-04-21 18:51 | 37.93957 | 23.93609 | 267 ft | 8 kts | 218° |
| 2026-04-21 18:51 | 37.93901 | 23.93553 | 266 ft | 9 kts | 218° |
| 2026-04-21 18:52 | 37.93880 | 23.93531 | 265 ft | 1 kts | 219° |